createdAt,value
2018-12-10T00:01:01.288Z,98696.22
2018-12-10T00:03:35.441Z,98688.02
2018-12-10T00:06:05.222Z,98692.78
2018-12-10T00:08:34.135Z,98693.29
2018-12-10T00:11:03.049Z,98690.48
2018-12-10T00:13:32.335Z,98699.05
2018-12-10T00:16:01.588Z,98693.22
2018-12-10T00:18:30.714Z,98690.67
2018-12-10T00:20:59.943Z,98688.17
2018-12-10T00:23:29.532Z,98686.48
2018-12-10T00:25:58.384Z,98689.27
2018-12-10T00:28:27.505Z,98687.95
2018-12-10T00:30:56.327Z,98689.05
2018-12-10T00:33:26.319Z,98692.03
2018-12-10T00:35:55.225Z,98691.52
2018-12-10T00:38:24.413Z,98690.78
2018-12-10T00:40:53.723Z,98692.44
2018-12-10T00:43:22.894Z,98685.46
2018-12-10T00:45:52.182Z,98692.83
2018-12-10T00:48:21.042Z,98701.08
2018-12-10T00:50:50.074Z,98690.44
2018-12-10T00:53:18.947Z,98686.92
2018-12-10T00:55:47.775Z,98684.11
2018-12-10T00:58:16.973Z,98683.03
2018-12-10T01:00:45.923Z,98681.68
2018-12-10T01:03:15.080Z,98680.47
2018-12-10T01:05:44.119Z,98680.81
2018-12-10T01:08:13.135Z,98677.86
2018-12-10T01:10:41.985Z,98673.34
2018-12-10T01:13:10.844Z,98674.19
2018-12-10T01:15:40.019Z,98672.83
2018-12-10T01:18:09.358Z,98672.36
2018-12-10T01:20:38.223Z,98677.34
2018-12-10T01:23:07.162Z,98670.45
2018-12-10T01:25:35.988Z,98662.22
2018-12-10T01:28:04.923Z,98656.31
2018-12-10T01:30:33.787Z,98654.05
2018-12-10T01:33:02.722Z,98644.52
2018-12-10T01:35:31.858Z,98649.58
2018-12-10T01:38:00.662Z,98651.80
2018-12-10T01:40:29.892Z,98648.80
2018-12-10T01:43:01.975Z,98655.18
2018-12-10T01:45:30.936Z,98654.10
2018-12-10T01:48:00.143Z,98657.25
2018-12-10T01:50:29.308Z,98660.58
2018-12-10T01:52:58.913Z,98654.88
2018-12-10T01:55:28.048Z,98652.69
2018-12-10T01:57:57.069Z,98646.05
2018-12-10T02:00:26.292Z,98639.46
2018-12-10T02:02:57.451Z,98641.12
2018-12-10T02:05:26.364Z,98638.12
2018-12-10T02:07:55.544Z,98629.78
2018-12-10T02:10:24.573Z,98633.79
2018-12-10T02:12:53.858Z,98633.82
2018-12-10T02:15:23.039Z,98619.99
2018-12-10T02:17:52.223Z,98618.69
2018-12-10T02:20:21.529Z,98608.80
2018-12-10T02:22:50.515Z,98614.25
2018-12-10T02:25:19.502Z,98610.05
2018-12-10T02:27:49.024Z,98604.71
2018-12-10T02:30:18.416Z,98606.55
2018-12-10T02:32:47.761Z,98606.95
2018-12-10T02:35:16.577Z,98603.22
2018-12-10T02:37:45.433Z,98601.41
2018-12-10T02:40:14.630Z,98601.16
2018-12-10T02:42:43.610Z,98595.88
2018-12-10T02:45:12.691Z,98596.66
2018-12-10T02:47:41.752Z,98600.77
2018-12-10T02:50:10.661Z,98596.31
2018-12-10T02:52:39.873Z,98595.91
2018-12-10T02:55:08.965Z,98591.67
2018-12-10T02:57:38.069Z,98585.67
2018-12-10T03:00:07.046Z,98578.53
2018-12-10T03:02:36.278Z,98573.09
2018-12-10T03:05:05.685Z,98576.39
2018-12-10T03:07:34.683Z,98573.50
2018-12-10T03:10:04.585Z,98570.34
2018-12-10T03:12:33.585Z,98571.55
2018-12-10T03:15:02.769Z,98574.80
2018-12-10T03:17:32.005Z,98578.63
2018-12-10T03:20:00.816Z,98572.94
2018-12-10T03:22:30.078Z,98572.53
2018-12-10T03:24:58.903Z,98576.34
2018-12-10T03:27:28.147Z,98577.48
2018-12-10T03:29:56.997Z,98581.53
2018-12-10T03:32:25.879Z,98584.33
2018-12-10T03:34:55.124Z,98587.62
2018-12-10T03:37:24.254Z,98586.72
2018-12-10T03:39:53.251Z,98594.52
2018-12-10T03:42:22.422Z,98599.27
2018-12-10T03:44:51.264Z,98600.61
2018-12-10T03:47:20.107Z,98614.55
2018-12-10T03:49:49.166Z,98615.83
2018-12-10T03:52:17.947Z,98625.95
2018-12-10T03:54:46.905Z,98625.23
2018-12-10T03:57:15.918Z,98611.72
2018-12-10T03:59:44.699Z,98611.77
2018-12-10T04:02:14.038Z,98615.03
2018-12-10T04:04:43.164Z,98615.38
2018-12-10T04:07:12.175Z,98617.41
2018-12-10T04:09:41.092Z,98619.81
2018-12-10T04:12:10.341Z,98619.81
2018-12-10T04:14:39.413Z,98620.05
2018-12-10T04:17:08.655Z,98619.42
2018-12-10T04:19:37.593Z,98617.23
2018-12-10T04:22:06.806Z,98616.06
2018-12-10T04:24:36.165Z,98611.45
2018-12-10T04:27:05.030Z,98605.02
2018-12-10T04:29:33.922Z,98613.47
2018-12-10T04:32:03.230Z,98615.17
2018-12-10T04:34:32.145Z,98608.09
2018-12-10T04:37:01.448Z,98603.19
2018-12-10T04:39:31.001Z,98604.48
2018-12-10T04:42:00.101Z,98608.28
2018-12-10T04:44:29.520Z,98618.47
2018-12-10T04:46:58.685Z,98612.30
2018-12-10T04:49:27.819Z,98615.62
2018-12-10T04:51:57.025Z,98611.14
2018-12-10T04:54:25.857Z,98613.15
2018-12-10T04:56:54.714Z,98611.22
2018-12-10T04:59:23.586Z,98611.31
2018-12-10T05:01:52.574Z,98618.03
2018-12-10T05:04:21.613Z,98622.67
2018-12-10T05:06:50.665Z,98621.74
2018-12-10T05:09:19.944Z,98628.41
2018-12-10T05:11:49.144Z,98630.02
2018-12-10T05:14:18.016Z,98623.17
2018-12-10T05:16:46.911Z,98627.86
2018-12-10T05:19:16.144Z,98618.66
2018-12-10T05:21:44.953Z,98616.55
2018-12-10T05:24:13.910Z,98625.45
2018-12-10T05:26:42.865Z,98621.28
2018-12-10T05:29:11.917Z,98623.66
2018-12-10T05:31:40.807Z,98635.06
2018-12-10T05:34:11.333Z,98646.49
2018-12-10T05:36:40.560Z,98638.51
2018-12-10T05:39:09.449Z,98634.14
2018-12-10T05:41:38.234Z,98627.78
2018-12-10T05:44:07.178Z,98627.34
2018-12-10T05:46:36.330Z,98623.00
2018-12-10T05:49:06.489Z,98643.48
2018-12-10T05:51:35.388Z,98645.42
2018-12-10T05:54:04.162Z,98649.04
2018-12-10T05:56:33.218Z,98646.77
2018-12-10T05:59:02.558Z,98643.08
2018-12-10T06:01:32.266Z,98646.00
2018-12-10T06:04:01.351Z,98649.53
2018-12-10T06:06:30.163Z,98656.65
2018-12-10T06:08:58.903Z,98647.29
2018-12-10T06:11:27.911Z,98651.20
2018-12-10T06:13:56.958Z,98648.91
2018-12-10T06:16:26.088Z,98654.77
2018-12-10T06:18:54.882Z,98658.55
2018-12-10T06:21:23.836Z,98660.97
2018-12-10T06:23:52.667Z,98663.81
2018-12-10T06:26:21.715Z,98663.56
2018-12-10T06:28:50.827Z,98662.57
2018-12-10T06:31:19.814Z,98663.71
2018-12-10T06:33:48.986Z,98667.91
2018-12-10T06:36:18.080Z,98658.61
2018-12-10T06:38:46.839Z,98655.95
2018-12-10T06:41:15.773Z,98658.38
2018-12-10T06:43:44.522Z,98659.45
2018-12-10T06:46:13.331Z,98669.55
2018-12-10T06:48:42.117Z,98686.16
2018-12-10T06:51:11.013Z,98693.75
2018-12-10T06:53:39.746Z,98681.79
2018-12-10T06:56:08.823Z,98678.61
2018-12-10T06:58:37.852Z,98669.00
2018-12-10T07:01:07.567Z,98672.05
2018-12-10T07:03:36.402Z,98674.95
2018-12-10T07:06:05.150Z,98682.73
2018-12-10T07:08:33.942Z,98694.92
2018-12-10T07:11:02.743Z,98694.19
2018-12-10T07:13:31.899Z,98694.97
2018-12-10T07:16:00.697Z,98695.66
2018-12-10T07:18:30.524Z,98685.52
2018-12-10T07:20:59.891Z,98695.66
2018-12-10T07:23:28.659Z,98697.74
2018-12-10T07:25:57.647Z,98699.49
2018-12-10T07:28:26.476Z,98700.08
2018-12-10T07:30:55.209Z,98698.25
2018-12-10T07:33:24.418Z,98708.66
2018-12-10T07:35:53.411Z,98717.95
2018-12-10T07:38:22.541Z,98725.93
2018-12-10T07:40:51.607Z,98734.02
2018-12-10T07:43:20.439Z,98736.96
2018-12-10T07:45:49.600Z,98743.73
2018-12-10T07:48:18.557Z,98747.53
2018-12-10T07:50:47.331Z,98756.09
2018-12-10T07:53:16.485Z,98760.91
2018-12-10T07:55:45.317Z,98763.65
2018-12-10T07:58:14.810Z,98770.54
2018-12-10T08:00:44.237Z,98767.64
2018-12-10T08:03:13.021Z,98769.17
2018-12-10T08:05:42.147Z,98769.47
2018-12-10T08:08:10.958Z,98761.87
2018-12-10T08:10:39.783Z,98755.62
2018-12-10T08:13:08.949Z,98757.11
2018-12-10T08:15:37.778Z,98754.38
2018-12-10T08:18:06.927Z,98756.22
2018-12-10T08:20:35.678Z,98758.83
2018-12-10T08:23:04.919Z,98768.47
2018-12-10T08:25:33.734Z,98766.39
2018-12-10T08:28:03.236Z,98764.73
2018-12-10T08:30:33.229Z,98760.14
2018-12-10T08:33:02.216Z,98759.48
2018-12-10T08:35:30.981Z,98757.88
2018-12-10T08:38:00.111Z,98751.30
2018-12-10T08:40:29.311Z,98746.98
2018-12-10T08:42:58.215Z,98749.31
2018-12-10T08:45:27.849Z,98747.89
2018-12-10T08:47:56.846Z,98759.48
2018-12-10T08:50:25.988Z,98758.00
2018-12-10T08:52:55.062Z,98764.53
2018-12-10T08:55:24.289Z,98771.97
2018-12-10T08:57:53.155Z,98760.86
2018-12-10T09:00:21.972Z,98763.68
2018-12-10T09:02:50.763Z,98753.98
2018-12-10T09:05:19.879Z,98752.95
2018-12-10T09:07:49.059Z,98755.23
2018-12-10T09:10:18.176Z,98763.98
2018-12-10T09:12:47.635Z,98755.56
2018-12-10T09:15:16.659Z,98761.41
2018-12-10T09:17:45.744Z,98759.92
2018-12-10T09:20:14.574Z,98756.63
2018-12-10T09:22:43.603Z,98758.76
2018-12-10T09:25:12.592Z,98751.12
2018-12-10T09:27:41.403Z,98750.69
2018-12-10T09:30:12.987Z,98746.41
2018-12-10T09:32:42.171Z,98747.16
2018-12-10T09:35:10.999Z,98739.69
2018-12-10T09:37:39.784Z,98749.70
2018-12-10T09:40:09.874Z,98748.88
2018-12-10T09:42:38.910Z,98738.25
2018-12-10T09:45:08.212Z,98739.39
2018-12-10T09:47:38.123Z,98727.31
2018-12-10T09:50:08.380Z,98726.62
2018-12-10T09:52:37.655Z,98722.58
2018-12-10T09:55:06.629Z,98719.92
2018-12-10T09:57:36.159Z,98718.41
2018-12-10T10:00:06.177Z,98726.08
2018-12-10T10:02:35.705Z,98723.65
2018-12-10T10:05:04.995Z,98716.52
2018-12-10T10:07:34.127Z,98713.66
2018-12-10T10:10:02.902Z,98707.74
2018-12-10T10:12:32.090Z,98701.91
2018-12-10T10:15:00.880Z,98705.84
2018-12-10T10:17:30.003Z,98692.34
2018-12-10T10:19:59.072Z,98692.38
2018-12-10T10:22:28.054Z,98696.53
2018-12-10T10:24:57.173Z,98688.92
2018-12-10T10:27:26.026Z,98694.88
2018-12-10T10:29:55.217Z,98698.37
2018-12-10T10:32:24.265Z,98698.89
2018-12-10T10:34:53.251Z,98694.69
2018-12-10T10:37:22.092Z,98694.53
2018-12-10T10:39:51.241Z,98694.59
2018-12-10T10:42:20.099Z,98698.98
2018-12-10T10:44:49.080Z,98695.59
2018-12-10T10:47:18.582Z,98697.37
2018-12-10T10:49:48.005Z,98699.37
2018-12-10T10:52:17.314Z,98700.59
2018-12-10T10:54:46.525Z,98694.58
2018-12-10T10:57:15.528Z,98690.52
2018-12-10T10:59:44.714Z,98672.15
2018-12-10T11:02:20.537Z,98673.97
2018-12-10T11:04:49.617Z,98674.27
2018-12-10T11:07:18.835Z,98672.27
2018-12-10T11:09:48.019Z,98676.67
2018-12-10T11:12:17.162Z,98671.51
2018-12-10T11:14:47.069Z,98676.34
2018-12-10T11:17:15.840Z,98672.40
2018-12-10T11:19:45.316Z,98666.85
2018-12-10T11:22:14.463Z,98664.86
2018-12-10T11:24:43.409Z,98675.74
2018-12-10T11:27:12.375Z,98665.08
2018-12-10T11:29:41.541Z,98667.70
2018-12-10T11:32:10.439Z,98656.31
2018-12-10T11:34:39.214Z,98661.94
2018-12-10T11:37:08.223Z,98665.88
2018-12-10T11:39:37.317Z,98656.74
2018-12-10T11:42:06.323Z,98659.45
2018-12-10T11:44:41.980Z,98655.30
2018-12-10T11:47:13.108Z,98654.45
2018-12-10T11:49:42.194Z,98656.69
2018-12-10T11:52:11.219Z,98672.11
2018-12-10T11:54:40.404Z,98672.66
2018-12-10T11:57:09.307Z,98676.43
2018-12-10T11:59:38.379Z,98673.97
2018-12-10T12:02:07.852Z,98666.00
2018-12-10T12:04:36.623Z,98668.88
2018-12-10T12:07:06.033Z,98675.45
2018-12-10T12:09:35.161Z,98666.18
2018-12-10T12:12:04.023Z,98658.98
2018-12-10T12:14:32.986Z,98657.16
2018-12-10T12:17:03.155Z,98654.84
2018-12-10T12:19:31.967Z,98659.84
2018-12-10T12:22:05.099Z,98647.51
2018-12-10T12:24:32.159Z,98650.19
2018-12-10T12:27:01.755Z,98654.53
2018-12-10T12:29:30.566Z,98643.75
2018-12-10T12:31:59.386Z,98646.29
2018-12-10T12:34:28.495Z,98648.28
2018-12-10T12:36:57.307Z,98643.11
2018-12-10T12:39:26.475Z,98636.94
2018-12-10T12:41:55.287Z,98641.89
2018-12-10T12:44:24.704Z,98640.41
2018-12-10T12:46:53.858Z,98633.47
2018-12-10T12:49:23.023Z,98638.42
2018-12-10T12:51:51.908Z,98634.02
2018-12-10T12:54:21.264Z,98633.64
2018-12-10T12:56:50.348Z,98636.09
2018-12-10T12:59:19.613Z,98637.63
2018-12-10T13:01:49.464Z,98628.68
2018-12-10T13:04:18.880Z,98633.25
2018-12-10T13:06:48.070Z,98632.62
2018-12-10T13:09:21.818Z,98633.00
2018-12-10T13:11:48.094Z,98638.62
2018-12-10T13:14:17.052Z,98637.05
2018-12-10T13:16:49.480Z,98632.73
2018-12-10T13:19:17.210Z,98633.35
2018-12-10T13:21:46.331Z,98636.63
2018-12-10T13:24:15.471Z,98640.39
2018-12-10T13:26:44.545Z,98641.24
2018-12-10T13:29:13.645Z,98642.77
2018-12-10T13:31:42.755Z,98644.42
2018-12-10T13:34:11.830Z,98647.56
2018-12-10T13:36:41.486Z,98645.73
2018-12-10T13:39:10.716Z,98648.19
2018-12-10T13:41:40.077Z,98642.94
2018-12-10T13:44:08.962Z,98649.04
2018-12-10T13:46:37.720Z,98649.84
2018-12-10T13:49:07.437Z,98646.97
2018-12-10T13:51:37.178Z,98649.28
2018-12-10T13:54:06.228Z,98645.47
2018-12-10T13:56:35.310Z,98638.36
2018-12-10T13:59:04.388Z,98647.55
2018-12-10T14:01:33.614Z,98645.94
2018-12-10T14:04:04.979Z,98641.83
2018-12-10T14:06:33.803Z,98642.21
2018-12-10T14:09:07.933Z,98651.64
2018-12-10T14:11:34.045Z,98648.84
2018-12-10T14:14:03.316Z,98654.18
2018-12-10T14:16:32.287Z,98647.62
2018-12-10T14:19:01.474Z,98645.45
2018-12-10T14:21:30.690Z,98648.72
2018-12-10T14:23:59.526Z,98643.77
2018-12-10T14:26:28.540Z,98647.23
2018-12-10T14:29:00.458Z,98654.87
2018-12-10T14:31:29.582Z,98645.01
2018-12-10T14:34:03.234Z,98649.19
2018-12-10T14:36:32.042Z,98637.89
2018-12-10T14:39:01.296Z,98643.78
2018-12-10T14:41:30.746Z,98638.91
2018-12-10T14:44:00.010Z,98634.13
2018-12-10T14:46:28.859Z,98640.43
2018-12-10T14:48:58.033Z,98632.97
2018-12-10T14:51:27.521Z,98641.52
2018-12-10T14:53:56.862Z,98640.67
2018-12-10T14:56:25.964Z,98635.05
2018-12-10T14:58:54.798Z,98631.57
2018-12-10T15:01:23.607Z,98634.41
2018-12-10T15:03:53.193Z,98636.86
2018-12-10T15:06:22.513Z,98632.86
2018-12-10T15:08:51.763Z,98642.81
2018-12-10T15:11:20.995Z,98639.89
2018-12-10T15:13:50.190Z,98635.16
2018-12-10T15:16:20.476Z,98644.59
2018-12-10T15:18:49.534Z,98645.15
2018-12-10T15:21:18.423Z,98650.83
2018-12-10T15:23:47.485Z,98647.42
2018-12-10T15:26:16.692Z,98651.19
2018-12-10T15:28:45.886Z,98646.88
2018-12-10T15:31:15.904Z,98650.20
2018-12-10T15:33:44.911Z,98651.81
2018-12-10T15:36:14.191Z,98650.12
2018-12-10T15:38:43.072Z,98652.48
2018-12-10T15:41:12.592Z,98652.72
2018-12-10T15:43:41.838Z,98658.58
2018-12-10T15:46:11.442Z,98656.66
2018-12-10T15:48:40.589Z,98661.73
2018-12-10T15:51:09.701Z,98662.52
2018-12-10T15:53:38.788Z,98664.28
2018-12-10T15:56:07.596Z,98669.27
2018-12-10T15:58:36.613Z,98665.74
2018-12-10T16:01:05.771Z,98670.76
2018-12-10T16:03:35.135Z,98671.05
2018-12-10T16:06:03.986Z,98684.42
2018-12-10T16:08:32.755Z,98673.91
2018-12-10T16:11:01.742Z,98677.39
2018-12-10T16:13:30.564Z,98682.55
2018-12-10T16:15:59.759Z,98679.17
2018-12-10T16:18:28.866Z,98672.52
2018-12-10T16:20:58.040Z,98679.45
2018-12-10T16:23:27.014Z,98689.03
2018-12-10T16:25:56.126Z,98685.24
2018-12-10T16:28:25.210Z,98685.47
2018-12-10T16:30:54.846Z,98687.34
2018-12-10T16:33:24.409Z,98687.42
2018-12-10T16:35:53.825Z,98696.53
2018-12-10T16:38:23.034Z,98697.77
2018-12-10T16:40:52.259Z,98698.23
2018-12-10T16:43:21.175Z,98703.02
2018-12-10T16:45:50.387Z,98707.51
2018-12-10T16:48:19.395Z,98707.42
2018-12-10T16:50:48.207Z,98703.48
2018-12-10T16:53:17.983Z,98707.34
2018-12-10T16:55:46.862Z,98707.72
2018-12-10T16:58:16.002Z,98714.38
2018-12-10T17:00:45.220Z,98716.82
2018-12-10T17:03:14.019Z,98719.92
2018-12-10T17:05:42.874Z,98733.05
2018-12-10T17:08:11.905Z,98730.52
2018-12-10T17:10:40.786Z,98736.01
2018-12-10T17:13:09.971Z,98730.49
2018-12-10T17:15:39.006Z,98731.72
2018-12-10T17:18:08.171Z,98733.41
2018-12-10T17:20:37.603Z,98734.34
2018-12-10T17:23:06.883Z,98745.79
2018-12-10T17:25:35.999Z,98737.91
2018-12-10T17:28:06.196Z,98751.89
2018-12-10T17:30:35.331Z,98748.42
2018-12-10T17:33:04.466Z,98746.26
2018-12-10T17:35:34.096Z,98758.08
2018-12-10T17:38:03.278Z,98757.61
2018-12-10T17:40:32.411Z,98757.70
2018-12-10T17:43:01.577Z,98758.25
2018-12-10T17:45:30.896Z,98756.95
2018-12-10T17:47:59.872Z,98762.80
2018-12-10T17:50:28.800Z,98767.84
2018-12-10T17:52:57.961Z,98767.17
2018-12-10T17:55:27.467Z,98767.30
2018-12-10T17:57:56.810Z,98771.59
2018-12-10T18:00:25.879Z,98773.83
2018-12-10T18:02:55.083Z,98776.92
2018-12-10T18:05:23.993Z,98766.17
2018-12-10T18:07:53.249Z,98776.30
2018-12-10T18:10:22.327Z,98773.92
2018-12-10T18:12:51.129Z,98774.77
2018-12-10T18:15:20.818Z,98772.52
2018-12-10T18:17:49.819Z,98768.58
2018-12-10T18:20:18.627Z,98769.97
2018-12-10T18:22:48.153Z,98775.61
2018-12-10T18:25:17.305Z,98772.44
2018-12-10T18:27:46.147Z,98770.73
2018-12-10T18:30:15.144Z,98770.83
2018-12-10T18:32:44.189Z,98772.98
2018-12-10T18:35:13.550Z,98772.05
2018-12-10T18:37:42.761Z,98778.32
2018-12-10T18:40:14.017Z,98776.38
2018-12-10T18:42:43.042Z,98782.09
2018-12-10T18:45:15.380Z,98796.33
2018-12-10T18:47:44.918Z,98792.14
2018-12-10T18:50:14.038Z,98789.52
2018-12-10T18:52:43.340Z,98795.23
2018-12-10T18:55:12.758Z,98791.38
2018-12-10T18:57:41.930Z,98794.63
2018-12-10T19:00:13.835Z,98796.80
2018-12-10T19:02:43.303Z,98801.58
2018-12-10T19:05:12.153Z,98814.16
2018-12-10T19:07:41.012Z,98816.16
2018-12-10T19:10:11.191Z,98804.75
2018-12-10T19:12:40.479Z,98809.08
2018-12-10T19:15:11.067Z,98809.38
2018-12-10T19:17:39.961Z,98814.02
2018-12-10T19:20:13.580Z,98805.13
2018-12-10T19:22:40.871Z,98815.55
2018-12-10T19:25:10.215Z,98815.55
2018-12-10T19:27:39.484Z,98815.55
2018-12-10T19:30:08.985Z,98816.56
2018-12-10T19:32:38.886Z,98814.79
2018-12-10T19:35:07.779Z,98823.21
2018-12-10T19:37:37.040Z,98820.51
2018-12-10T19:40:07.678Z,98825.67
2018-12-10T19:42:37.146Z,98823.13
2018-12-10T19:45:07.913Z,98820.59
2018-12-10T19:47:37.262Z,98817.96
2018-12-10T19:50:07.180Z,98831.01
2018-12-10T19:52:36.370Z,98824.45
2018-12-10T19:55:05.907Z,98825.50
2018-12-10T19:57:34.938Z,98824.05
2018-12-10T20:00:04.690Z,98828.21
2018-12-10T20:02:33.993Z,98827.36
2018-12-10T20:05:03.168Z,98821.65
2018-12-10T20:07:32.009Z,98832.41
2018-12-10T20:10:00.792Z,98839.09
2018-12-10T20:12:29.959Z,98831.38
2018-12-10T20:14:59.465Z,98841.72
2018-12-10T20:17:28.899Z,98839.43
2018-12-10T20:19:57.969Z,98836.09
2018-12-10T20:22:27.228Z,98837.40
2018-12-10T20:24:56.012Z,98834.86
2018-12-10T20:27:25.445Z,98840.80
2018-12-10T20:29:54.581Z,98835.63
2018-12-10T20:32:23.961Z,98835.23
2018-12-10T20:34:52.803Z,98839.17
2018-12-10T20:37:22.029Z,98843.80
2018-12-10T20:39:50.848Z,98845.53
2018-12-10T20:42:20.027Z,98847.69
2018-12-10T20:44:49.532Z,98855.56
2018-12-10T20:47:19.275Z,98861.28
2018-12-10T20:49:48.758Z,98852.86
2018-12-10T20:52:17.575Z,98848.54
2018-12-10T20:54:46.743Z,98852.48
2018-12-10T20:57:15.668Z,98854.38
2018-12-10T20:59:44.668Z,98855.86
2018-12-10T21:02:13.824Z,98850.30
2018-12-10T21:04:42.851Z,98853.01
2018-12-10T21:07:12.110Z,98855.01
2018-12-10T21:09:40.932Z,98858.56
2018-12-10T21:12:10.296Z,98861.19
2018-12-10T21:14:39.281Z,98847.38
2018-12-10T21:17:08.490Z,98868.42
2018-12-10T21:19:37.843Z,98856.39
2018-12-10T21:22:06.870Z,98866.04
2018-12-10T21:24:36.118Z,98854.05
2018-12-10T21:27:06.113Z,98872.97
2018-12-10T21:29:35.311Z,98864.02
2018-12-10T21:32:04.324Z,98865.53
2018-12-10T21:34:33.495Z,98868.70
2018-12-10T21:37:02.694Z,98867.47
2018-12-10T21:39:31.795Z,98872.56
2018-12-10T21:42:00.986Z,98871.14
2018-12-10T21:44:30.325Z,98865.63
2018-12-10T21:46:59.110Z,98873.34
2018-12-10T21:49:28.287Z,98866.87
2018-12-10T21:51:57.199Z,98871.46
2018-12-10T21:54:26.227Z,98880.33
2018-12-10T21:56:55.317Z,98881.25
2018-12-10T21:59:24.254Z,98871.89
2018-12-10T22:01:53.302Z,98873.20
2018-12-10T22:04:22.760Z,98877.09
2018-12-10T22:06:52.025Z,98890.31
2018-12-10T22:09:21.004Z,98882.38
2018-12-10T22:11:50.778Z,98882.45
2018-12-10T22:14:19.883Z,98872.19
2018-12-10T22:16:48.880Z,98872.11
2018-12-10T22:19:17.888Z,98871.03
2018-12-10T22:21:47.192Z,98870.64
2018-12-10T22:24:16.356Z,98876.47
2018-12-10T22:26:45.321Z,98875.16
2018-12-10T22:29:14.231Z,98883.55
2018-12-10T22:31:43.087Z,98888.41
2018-12-10T22:34:11.841Z,98884.17
2018-12-10T22:36:40.583Z,98892.30
2018-12-10T22:39:09.730Z,98898.59
2018-12-10T22:41:38.616Z,98895.23
2018-12-10T22:44:07.566Z,98895.23
2018-12-10T22:46:36.397Z,98897.47
2018-12-10T22:49:05.152Z,98906.11
2018-12-10T22:51:34.223Z,98905.33
2018-12-10T22:54:03.003Z,98909.34
2018-12-10T22:56:31.794Z,98900.23
2018-12-10T22:59:00.875Z,98904.31
2018-12-10T23:01:29.887Z,98906.20
2018-12-10T23:03:58.573Z,98909.42
2018-12-10T23:06:27.348Z,98912.19
2018-12-10T23:08:56.471Z,98922.74
2018-12-10T23:11:25.371Z,98921.94
2018-12-10T23:13:54.477Z,98927.11
2018-12-10T23:16:23.446Z,98918.39
2018-12-10T23:18:52.329Z,98929.73
2018-12-10T23:21:21.063Z,98929.34
2018-12-10T23:23:50.215Z,98925.36
2018-12-10T23:26:19.302Z,98935.78
2018-12-10T23:28:48.338Z,98936.23
2018-12-10T23:31:17.057Z,98936.73
2018-12-10T23:33:46.074Z,98946.83
2018-12-10T23:36:15.083Z,98935.72
2018-12-10T23:38:43.909Z,98940.42
2018-12-10T23:41:12.976Z,98936.10
2018-12-10T23:43:42.059Z,98943.05
2018-12-10T23:46:11.164Z,98940.81
2018-12-10T23:48:40.448Z,98950.38
2018-12-10T23:51:09.219Z,98951.69
2018-12-10T23:53:37.908Z,98951.22
2018-12-10T23:56:06.690Z,98953.77
2018-12-10T23:58:35.491Z,98955.50
